Time;durP1;ratioP1;P1;durP2;ratioP2;P2;SDS_P1;SDS_P2;PMS_P1;PMS_P2;Temp;Humidity;BMP_temperature;BMP_pressure;BME280_temperature;BME280_humidity;BME280_pressure;Samples;Min_cycle;Max_cycle;Signal;HPM_P1;HPM_P2
2022/07/01 00:00:21;;;;;;;143.30;129.45;;;16.20;97.80;;;;;;5015964;28;20133;-74
2022/07/01 00:02:48;;;;;;;141.25;127.47;;;16.20;97.90;;;;;;5034397;28;20049;-74
2022/07/01 00:05:15;;;;;;;141.15;127.15;;;16.20;98.00;;;;;;5034905;28;20058;-74
2022/07/01 00:07:45;;;;;;;139.05;125.75;;;16.30;98.10;;;;;;5034060;28;20061;-74
2022/07/01 00:10:12;;;;;;;145.68;130.98;;;16.20;98.10;;;;;;5034502;28;20049;-74
2022/07/01 00:12:40;;;;;;;139.80;126.03;;;16.30;98.10;;;;;;5033375;28;20042;-74
2022/07/01 00:15:07;;;;;;;144.38;130.02;;;16.30;98.20;;;;;;5032936;28;20116;-74
2022/07/01 00:17:34;;;;;;;147.95;133.75;;;16.30;98.30;;;;;;5031466;28;20042;-74
2022/07/01 00:20:01;;;;;;;141.95;128.15;;;16.30;98.30;;;;;;5032939;28;20136;-74
2022/07/01 00:22:28;;;;;;;134.40;121.70;;;16.30;98.30;;;;;;5034412;28;20054;-74
2022/07/01 00:24:55;;;;;;;136.27;123.22;;;16.30;98.30;;;;;;5035656;28;20053;-74
2022/07/01 00:27:23;;;;;;;134.10;121.43;;;16.30;98.30;;;;;;5032925;28;20132;-74
2022/07/01 00:29:51;;;;;;;138.32;125.07;;;16.30;98.30;;;;;;5032625;28;20054;-74
2022/07/01 00:32:18;;;;;;;138.95;125.68;;;16.30;98.30;;;;;;5033081;28;20533;-74
2022/07/01 00:34:45;;;;;;;136.75;123.63;;;16.30;98.30;;;;;;5033814;28;20157;-74
2022/07/01 00:37:11;;;;;;;135.98;122.88;;;16.40;98.30;;;;;;5031695;28;20050;-74
2022/07/01 00:39:38;;;;;;;135.73;122.93;;;16.40;98.30;;;;;;5032581;28;20617;-74
2022/07/01 00:42:06;;;;;;;135.50;122.70;;;16.40;98.30;;;;;;5032800;28;20058;-74
2022/07/01 00:44:33;;;;;;;142.85;129.15;;;16.30;98.30;;;;;;5033802;28;20058;-74
2022/07/01 00:47:04;;;;;;;145.02;130.70;;;16.30;98.30;;;;;;5032265;28;20046;-74
2022/07/01 00:49:31;;;;;;;141.98;128.07;;;16.30;98.30;;;;;;5031932;28;20056;-74
2022/07/01 00:51:58;;;;;;;142.48;128.55;;;16.30;98.30;;;;;;5030801;28;20504;-74
2022/07/01 00:54:27;;;;;;;145.68;131.40;;;16.30;98.20;;;;;;5033582;28;20058;-74
2022/07/01 00:56:54;;;;;;;141.30;127.60;;;16.30;98.10;;;;;;5031862;28;20080;-74
2022/07/01 00:59:21;;;;;;;141.50;127.68;;;16.30;98.10;;;;;;5031898;28;20056;-74
2022/07/01 01:01:48;;;;;;;138.35;124.85;;;16.30;98.30;;;;;;5032170;28;20546;-74
2022/07/01 01:04:16;;;;;;;134.40;121.90;;;16.30;98.00;;;;;;5033494;28;20073;-74
2022/07/01 01:06:43;;;;;;;134.98;122.28;;;16.20;98.00;;;;;;5032088;28;20046;-74
2022/07/01 01:09:10;;;;;;;134.00;121.30;;;16.20;98.00;;;;;;5031481;28;20131;-74
2022/07/01 01:11:38;;;;;;;135.25;122.45;;;16.20;98.00;;;;;;5032317;28;20045;-74
2022/07/01 01:14:05;;;;;;;138.73;125.63;;;16.20;98.00;;;;;;5032270;28;20046;-74
2022/07/01 01:16:33;;;;;;;139.05;125.65;;;16.20;98.00;;;;;;5033028;28;20156;-74
2022/07/01 01:19:02;;;;;;;146.48;132.18;;;16.30;98.00;;;;;;5031884;28;20054;-74
2022/07/01 01:21:30;;;;;;;142.32;128.43;;;16.30;98.00;;;;;;5032095;28;20057;-74
2022/07/01 01:23:59;;;;;;;135.65;122.68;;;16.20;97.90;;;;;;5032343;28;20077;-74
2022/07/01 01:26:26;;;;;;;136.82;124.00;;;16.30;97.90;;;;;;5030815;28;20054;-74
2022/07/01 01:28:53;;;;;;;135.52;122.82;;;16.20;97.80;;;;;;5033049;28;20072;-74
2022/07/01 01:31:29;;;;;;;137.48;124.63;;;16.20;97.90;;;;;;5033414;28;20058;-74
2022/07/01 01:33:56;;;;;;;133.85;121.03;;;16.30;97.80;;;;;;5032291;28;20492;-74
2022/07/01 01:36:23;;;;;;;134.43;121.63;;;16.20;97.80;;;;;;5031398;28;20146;-74
2022/07/01 01:38:51;;;;;;;139.32;126.07;;;16.20;97.80;;;;;;5031438;28;20052;-74
2022/07/01 01:41:18;;;;;;;139.82;126.53;;;16.20;97.80;;;;;;5031452;28;20057;-74
2022/07/01 01:43:47;;;;;;;148.38;133.75;;;16.20;98.00;;;;;;5031263;28;20045;-74
2022/07/01 01:46:13;;;;;;;144.15;130.25;;;16.20;97.90;;;;;;5031468;28;20085;-74
2022/07/01 01:48:40;;;;;;;143.25;129.45;;;16.20;97.90;;;;;;5033909;28;20142;-74
2022/07/01 01:51:07;;;;;;;139.38;126.05;;;16.20;97.90;;;;;;5036411;28;20615;-75
2022/07/01 01:53:34;;;;;;;139.35;126.15;;;16.20;97.90;;;;;;5034938;28;20525;-74
2022/07/01 01:56:02;;;;;;;144.05;129.95;;;16.20;97.90;;;;;;5036024;28;20137;-74
2022/07/01 01:58:29;;;;;;;145.48;131.50;;;16.20;97.90;;;;;;5032859;28;20050;-74
2022/07/01 02:00:56;;;;;;;145.07;131.18;;;16.20;97.80;;;;;;5035451;28;20176;-74
2022/07/01 02:03:23;;;;;;;144.85;130.95;;;16.20;98.00;;;;;;5035608;28;20148;-74
2022/07/01 02:05:51;;;;;;;143.70;130.00;;;16.20;97.90;;;;;;5036189;28;20050;-74
2022/07/01 02:08:18;;;;;;;143.98;130.27;;;16.20;97.90;;;;;;5036120;28;20057;-74
2022/07/01 02:10:45;;;;;;;141.85;128.40;;;16.20;97.90;;;;;;5034581;28;20567;-74
2022/07/01 02:13:13;;;;;;;147.05;133.27;;;16.20;97.90;;;;;;5035088;28;20054;-74
2022/07/01 02:15:40;;;;;;;144.82;131.13;;;16.20;97.90;;;;;;5036037;28;20060;-74
2022/07/01 02:18:07;;;;;;;144.02;130.27;;;16.20;97.90;;;;;;5035979;28;20100;-74
2022/07/01 02:20:34;;;;;;;141.63;128.25;;;16.20;97.90;;;;;;5035820;28;20060;-74
2022/07/01 02:23:01;;;;;;;144.15;130.48;;;16.20;97.90;;;;;;5036101;28;20058;-73
2022/07/01 02:25:28;;;;;;;144.10;130.32;;;16.20;97.90;;;;;;5034060;28;20050;-74
2022/07/01 02:27:55;;;;;;;144.75;130.95;;;16.20;97.90;;;;;;5034394;28;20133;-74
2022/07/01 02:30:23;;;;;;;147.77;133.68;;;16.20;97.90;;;;;;5034512;28;21018;-74
2022/07/01 02:32:50;;;;;;;148.15;133.77;;;16.20;97.90;;;;;;5033956;28;20080;-74
2022/07/01 02:35:17;;;;;;;143.90;130.07;;;16.20;97.90;;;;;;5035046;28;20054;-74
2022/07/01 02:37:44;;;;;;;146.00;132.00;;;16.20;98.00;;;;;;5034003;28;20048;-74
2022/07/01 02:40:12;;;;;;;148.73;134.52;;;16.20;97.90;;;;;;5032947;28;20058;-74
2022/07/01 02:42:39;;;;;;;147.60;133.32;;;16.20;97.90;;;;;;5032527;28;20050;-74
2022/07/01 02:45:08;;;;;;;144.88;131.10;;;16.20;97.90;;;;;;5032534;28;20516;-74
2022/07/01 02:47:38;;;;;;;150.68;135.98;;;16.20;97.90;;;;;;5032297;28;20045;-73
2022/07/01 02:50:06;;;;;;;149.20;134.63;;;16.20;97.90;;;;;;5032191;28;20048;-74
2022/07/01 02:52:34;;;;;;;147.73;133.32;;;16.20;97.90;;;;;;5032223;28;20053;-73
2022/07/01 02:55:01;;;;;;;145.90;131.68;;;16.20;98.00;;;;;;5034583;28;20231;-73
2022/07/01 02:57:28;;;;;;;148.40;133.80;;;16.20;98.00;;;;;;5033331;28;20049;-73
2022/07/01 02:59:55;;;;;;;145.95;131.82;;;16.20;98.00;;;;;;5016831;28;20057;-74
2022/07/01 03:02:22;;;;;;;141.27;127.82;;;16.20;98.00;;;;;;5034466;28;20080;-74
2022/07/01 03:04:54;;;;;;;153.82;138.68;;;16.20;98.00;;;;;;5034457;28;20058;-73
2022/07/01 03:07:21;;;;;;;149.23;134.57;;;16.20;98.00;;;;;;5033872;28;20141;-73
2022/07/01 03:09:48;;;;;;;147.27;132.70;;;16.20;98.00;;;;;;5034037;28;20053;-74
2022/07/01 03:12:28;;;;;;;149.70;134.98;;;16.20;98.10;;;;;;5033798;28;20049;-74
2022/07/01 03:14:56;;;;;;;151.10;136.20;;;16.20;98.10;;;;;;5033301;28;20042;-73
2022/07/01 03:17:24;;;;;;;155.77;140.38;;;16.20;98.20;;;;;;5032889;28;20050;-73
2022/07/01 03:19:52;;;;;;;152.77;137.57;;;16.20;98.20;;;;;;5033770;28;20046;-74
2022/07/01 03:22:20;;;;;;;152.75;137.75;;;16.20;98.10;;;;;;5034740;28;20879;-73
2022/07/01 03:24:48;;;;;;;152.75;137.88;;;16.20;98.20;;;;;;5033481;28;20492;-74
2022/07/01 03:27:15;;;;;;;156.68;141.32;;;16.20;98.30;;;;;;5033211;28;20061;-73
2022/07/01 03:29:42;;;;;;;154.77;139.55;;;16.20;98.10;;;;;;5033640;28;20060;-73
2022/07/01 03:32:09;;;;;;;146.73;132.40;;;16.20;98.10;;;;;;5034596;28;20056;-73
2022/07/01 03:34:37;;;;;;;153.90;138.80;;;16.10;98.00;;;;;;5035505;28;20518;-73
2022/07/01 03:37:07;;;;;;;157.85;142.07;;;16.10;98.00;;;;;;5032936;28;20554;-73
2022/07/01 03:39:35;;;;;;;151.85;136.93;;;16.10;98.00;;;;;;5031922;28;20080;-73
2022/07/01 03:42:02;;;;;;;158.07;142.30;;;16.00;98.00;;;;;;5033750;28;21043;-73
2022/07/01 03:44:29;;;;;;;154.45;139.35;;;16.00;98.10;;;;;;5033031;28;20096;-73
2022/07/01 03:46:56;;;;;;;157.00;141.45;;;16.00;98.00;;;;;;5016555;28;20057;-73
2022/07/01 03:49:23;;;;;;;157.68;141.45;;;16.00;98.10;;;;;;5033313;28;20041;-73
2022/07/01 03:51:50;;;;;;;156.40;140.52;;;16.00;98.00;;;;;;5034471;28;20061;-73
2022/07/01 03:54:32;;;;;;;163.18;146.48;;;15.90;98.10;;;;;;5033000;28;20054;-73
2022/07/01 03:57:00;;;;;;;157.00;141.30;;;15.90;98.20;;;;;;5032591;28;20575;-73
2022/07/01 03:59:28;;;;;;;156.00;140.35;;;15.90;98.20;;;;;;5033545;28;20129;-73
2022/07/01 04:01:55;;;;;;;160.13;144.00;;;15.90;98.20;;;;;;5033102;28;20046;-73
2022/07/01 04:04:22;;;;;;;164.45;147.43;;;15.90;98.30;;;;;;5032941;28;20076;-73
2022/07/01 04:06:50;;;;;;;164.82;147.68;;;15.90;98.20;;;;;;5033856;28;20058;-73
2022/07/01 04:09:19;;;;;;;161.93;145.13;;;15.90;98.30;;;;;;5034057;28;20124;-73
2022/07/01 04:11:48;;;;;;;166.30;149.50;;;15.90;98.30;;;;;;5014400;28;20800;-74
2022/07/01 04:14:15;;;;;;;162.35;146.05;;;15.90;98.30;;;;;;5033800;28;20076;-73
2022/07/01 04:16:42;;;;;;;170.35;152.15;;;15.90;98.30;;;;;;5034032;28;20058;-73
2022/07/01 04:19:09;;;;;;;167.43;150.68;;;15.90;98.30;;;;;;5065498;28;20045;-73
2022/07/01 04:24:24;;;;;;;169.68;152.35;;;15.90;98.30;;;;;;5066669;28;20520;-73
2022/07/01 04:26:51;;;;;;;171.95;154.25;;;15.80;98.20;;;;;;5034088;28;20596;-73
2022/07/01 04:29:18;;;;;;;169.63;152.52;;;15.80;98.30;;;;;;5033830;28;20054;-73
2022/07/01 04:31:45;;;;;;;170.70;153.15;;;15.80;98.30;;;;;;5032801;28;20069;-73
2022/07/01 04:34:12;;;;;;;171.30;154.20;;;15.80;98.40;;;;;;5066508;28;20141;-73
2022/07/01 04:36:39;;;;;;;170.15;152.98;;;15.80;98.40;;;;;;5066019;28;20488;-73
2022/07/01 04:39:07;;;;;;;171.90;154.93;;;15.70;98.40;;;;;;5033431;28;20060;-73
2022/07/01 04:44:20;;;;;;;;;;;15.70;98.40;;;;;;5034064;28;20527;-73
2022/07/01 04:46:46;;;;;;;163.30;146.07;;;15.70;98.30;;;;;;5032704;28;20381;-73
2022/07/01 04:49:13;;;;;;;172.23;154.73;;;15.70;98.40;;;;;;5031493;28;20045;-73
2022/07/01 04:51:40;;;;;;;173.30;155.38;;;15.70;98.50;;;;;;5030653;28;20060;-73
2022/07/01 04:54:08;;;;;;;170.90;153.50;;;15.70;98.50;;;;;;5032071;28;20468;-74
2022/07/01 04:56:37;;;;;;;171.63;154.30;;;15.70;98.50;;;;;;5064530;28;20171;-73
2022/07/01 04:59:05;;;;;;;176.50;158.27;;;15.70;98.50;;;;;;5029768;28;20046;-73
2022/07/01 05:01:32;;;;;;;176.13;157.98;;;15.60;98.50;;;;;;5033461;28;20464;-73
2022/07/01 05:04:00;;;;;;;169.10;151.48;;;15.60;98.60;;;;;;5065126;28;20046;-73
2022/07/01 05:06:27;;;;;;;172.80;154.90;;;15.70;98.60;;;;;;5031372;28;20061;-73
2022/07/01 05:08:54;;;;;;;175.32;157.32;;;15.60;98.60;;;;;;5032281;28;20096;-73
2022/07/01 05:11:21;;;;;;;173.68;155.95;;;15.70;98.60;;;;;;5032957;28;20077;-73
2022/07/01 05:13:49;;;;;;;176.82;158.35;;;15.60;98.50;;;;;;5031506;28;20062;-74
2022/07/01 05:16:16;;;;;;;179.60;161.18;;;15.60;98.50;;;;;;5031735;28;20511;-74
2022/07/01 05:24:12;;;;;;;170.98;153.40;;;15.60;98.50;;;;;;5046562;28;20165;-74
2022/07/01 05:26:39;;;;;;;176.35;158.25;;;15.60;98.50;;;;;;5029837;28;20549;-74
2022/07/01 05:29:08;;;;;;;171.05;153.90;;;15.60;98.60;;;;;;5028804;28;20132;-73
2022/07/01 05:31:35;;;;;;;171.93;154.40;;;15.60;98.60;;;;;;5030673;28;20053;-73
2022/07/01 05:34:02;;;;;;;171.77;154.20;;;15.60;98.60;;;;;;5029065;28;20177;-73
2022/07/01 05:36:29;;;;;;;174.73;157.18;;;15.60;98.60;;;;;;5030335;28;20080;-73
2022/07/01 05:38:56;;;;;;;179.65;161.68;;;15.60;98.70;;;;;;5062564;28;20050;-73
2022/07/01 05:41:23;;;;;;;172.98;155.23;;;15.60;98.70;;;;;;5029577;28;20060;-74
2022/07/01 05:43:50;;;;;;;173.80;156.52;;;15.60;98.70;;;;;;5014176;28;20053;-73
2022/07/01 05:46:18;;;;;;;173.98;156.77;;;15.60;98.70;;;;;;5032213;28;20514;-73
2022/07/01 05:48:45;;;;;;;171.70;154.43;;;15.60;98.70;;;;;;5031789;28;20061;-74
2022/07/01 05:51:12;;;;;;;176.05;158.30;;;15.60;98.70;;;;;;5030858;28;20054;-73
2022/07/01 05:53:38;;;;;;;174.85;157.40;;;15.60;98.60;;;;;;5029272;28;20092;-74
2022/07/01 05:56:06;;;;;;;176.27;158.77;;;15.60;98.70;;;;;;5032073;28;20053;-73
2022/07/01 05:58:32;;;;;;;171.63;154.23;;;15.60;98.70;;;;;;5030713;28;20085;-74
2022/07/01 06:00:59;;;;;;;180.20;162.00;;;15.60;98.90;;;;;;5030832;28;20058;-73
2022/07/01 06:03:28;;;;;;;173.05;155.55;;;15.60;98.70;;;;;;5031536;28;20050;-74
2022/07/01 06:05:55;;;;;;;173.23;155.70;;;15.60;98.70;;;;;;5031080;28;20060;-76
2022/07/01 06:08:21;;;;;;;169.10;151.68;;;15.60;98.80;;;;;;5036780;28;20046;-76
2022/07/01 06:10:49;;;;;;;169.55;152.23;;;15.60;98.80;;;;;;5030297;28;20058;-76
2022/07/01 06:13:16;;;;;;;166.70;150.00;;;15.70;98.90;;;;;;5031411;28;20057;-76
2022/07/01 06:15:43;;;;;;;166.77;150.32;;;15.70;98.90;;;;;;5045037;28;20056;-77
2022/07/01 06:18:10;;;;;;;165.32;148.70;;;15.70;98.90;;;;;;5033508;28;20136;-78
2022/07/01 06:20:38;;;;;;;167.52;150.85;;;15.80;98.90;;;;;;5034416;28;20057;-78
2022/07/01 06:23:05;;;;;;;168.95;152.38;;;15.80;98.80;;;;;;5031634;28;20068;-78
2022/07/01 06:25:32;;;;;;;173.25;155.48;;;15.80;98.60;;;;;;5031322;28;20054;-77
2022/07/01 06:27:59;;;;;;;170.95;153.73;;;15.80;98.60;;;;;;5013746;28;20580;-77
2022/07/01 06:30:26;;;;;;;169.02;152.30;;;15.80;98.60;;;;;;5031530;28;20049;-79
2022/07/01 06:32:53;;;;;;;166.93;150.70;;;15.90;98.60;;;;;;5031422;28;20520;-78
2022/07/01 06:35:20;;;;;;;177.70;159.95;;;15.90;98.70;;;;;;5043556;28;20057;-77
2022/07/01 06:37:48;;;;;;;171.90;155.23;;;15.90;98.50;;;;;;5035862;28;20054;-77
2022/07/01 06:40:15;;;;;;;167.75;151.38;;;15.90;98.40;;;;;;5066934;28;20189;-76
2022/07/01 06:42:42;;;;;;;167.23;150.93;;;16.00;98.30;;;;;;5041261;28;20053;-76
2022/07/01 06:45:11;;;;;;;172.90;155.57;;;16.00;98.20;;;;;;5037874;28;20492;-77
2022/07/01 06:47:37;;;;;;;172.13;155.35;;;16.00;98.20;;;;;;5050787;28;20049;-77
2022/07/01 06:50:05;;;;;;;175.90;158.70;;;16.00;98.20;;;;;;5036328;28;20054;-76
2022/07/01 06:52:32;;;;;;;177.80;159.90;;;16.00;98.10;;;;;;5036745;28;20057;-74
2022/07/01 06:55:01;;;;;;;172.80;155.65;;;15.90;98.20;;;;;;5035403;28;20140;-73
2022/07/01 06:57:29;;;;;;;173.00;156.02;;;16.00;98.30;;;;;;5034204;28;20037;-73
2022/07/01 06:59:56;;;;;;;181.68;164.18;;;15.90;98.30;;;;;;5062965;28;20058;-74
2022/07/01 07:02:23;;;;;;;172.43;155.85;;;16.00;98.20;;;;;;5032176;28;20046;-73
2022/07/01 07:04:50;;;;;;;176.00;158.77;;;16.00;98.30;;;;;;5032206;28;20057;-75
2022/07/01 07:07:17;;;;;;;175.30;157.93;;;16.00;98.30;;;;;;5066573;28;20049;-76
2022/07/01 07:09:43;;;;;;;170.65;153.65;;;16.00;98.20;;;;;;5039632;28;20052;-76
2022/07/01 07:12:12;;;;;;;168.38;151.70;;;16.00;98.10;;;;;;5033131;28;20069;-76
2022/07/01 07:14:39;;;;;;;170.48;153.48;;;16.00;98.20;;;;;;5032299;28;20050;-75
2022/07/01 07:17:06;;;;;;;176.57;158.82;;;15.90;98.20;;;;;;5032715;28;20056;-74
2022/07/01 07:19:33;;;;;;;177.07;158.80;;;16.00;98.30;;;;;;5015517;28;20050;-74
2022/07/01 07:22:00;;;;;;;175.07;157.23;;;15.90;98.30;;;;;;5031745;28;20046;-73
2022/07/01 07:24:27;;;;;;;170.60;153.80;;;16.00;98.40;;;;;;5031945;28;20124;-74
2022/07/01 07:26:54;;;;;;;170.55;154.02;;;16.00;98.30;;;;;;5015080;28;20061;-75
2022/07/01 07:29:22;;;;;;;168.80;152.48;;;16.00;98.40;;;;;;5032595;28;20054;-74
2022/07/01 07:31:49;;;;;;;165.05;149.00;;;16.00;98.40;;;;;;5032291;28;20057;-78
2022/07/01 07:34:16;;;;;;;163.82;147.93;;;15.90;98.50;;;;;;5032209;28;20136;-77
2022/07/01 07:36:43;;;;;;;164.60;148.50;;;16.00;98.60;;;;;;5030323;28;20057;-74
2022/07/01 07:39:09;;;;;;;169.55;153.00;;;16.00;98.70;;;;;;5031647;28;20439;-76
2022/07/01 07:41:36;;;;;;;164.15;148.23;;;16.10;98.70;;;;;;5033378;28;20515;-76
2022/07/01 07:44:04;;;;;;;169.63;153.50;;;16.20;98.40;;;;;;5032980;28;20061;-75
2022/07/01 07:46:32;;;;;;;167.77;151.20;;;16.20;98.40;;;;;;5031445;28;20507;-76
2022/07/01 07:48:59;;;;;;;164.98;148.90;;;16.20;98.40;;;;;;5031524;28;20050;-76
2022/07/01 07:51:26;;;;;;;170.68;154.13;;;16.30;98.40;;;;;;5030820;28;20056;-73
2022/07/01 07:53:53;;;;;;;168.20;151.23;;;16.20;98.50;;;;;;5032021;28;20064;-76
2022/07/01 07:56:20;;;;;;;174.13;156.85;;;16.30;98.50;;;;;;5032161;28;20054;-76
2022/07/01 07:58:47;;;;;;;170.30;153.35;;;16.30;98.50;;;;;;5032176;28;20097;-76
2022/07/01 08:01:14;;;;;;;165.50;149.23;;;16.40;98.50;;;;;;5035712;28;20120;-74
2022/07/01 08:03:42;;;;;;;171.63;155.15;;;16.40;98.30;;;;;;5032348;28;20507;-75
2022/07/01 08:06:09;;;;;;;166.98;150.68;;;16.50;98.00;;;;;;5032578;28;20053;-75
2022/07/01 08:08:36;;;;;;;169.38;152.98;;;16.50;98.00;;;;;;5065839;28;20042;-75
2022/07/01 08:11:03;;;;;;;169.75;152.98;;;16.50;98.00;;;;;;5032120;28;20046;-75
2022/07/01 08:13:30;;;;;;;171.43;154.55;;;16.60;98.00;;;;;;5032464;28;20173;-77
2022/07/01 08:15:57;;;;;;;171.68;154.05;;;16.60;98.10;;;;;;5066246;28;20122;-78
2022/07/01 08:18:24;;;;;;;168.30;151.45;;;16.60;97.80;;;;;;5066234;28;20088;-76
2022/07/01 08:20:53;;;;;;;167.85;150.27;;;16.70;97.90;;;;;;5032501;28;20839;-78
2022/07/01 08:23:20;;;;;;;166.82;150.18;;;16.70;97.90;;;;;;5031733;28;20222;-77
2022/07/01 08:25:47;;;;;;;165.75;149.25;;;16.80;97.70;;;;;;5032977;28;20057;-74
2022/07/01 08:28:14;;;;;;;166.23;149.00;;;16.80;97.80;;;;;;5020782;28;20576;-76
2022/07/01 08:30:42;;;;;;;170.18;152.98;;;16.90;97.70;;;;;;5027550;28;20603;-76
2022/07/01 08:33:09;;;;;;;165.43;148.93;;;16.90;97.60;;;;;;5040615;28;20060;-76
2022/07/01 08:35:36;;;;;;;164.15;147.95;;;16.90;97.20;;;;;;5032319;28;20079;-76
2022/07/01 08:38:07;;;;;;;164.27;148.00;;;17.00;96.90;;;;;;5013986;28;20049;-76
2022/07/01 08:40:34;;;;;;;168.10;151.75;;;17.00;96.90;;;;;;5030360;28;20129;-75
2022/07/01 08:43:05;;;;;;;166.15;148.90;;;17.00;96.80;;;;;;5065550;28;20148;-74
2022/07/01 08:45:35;;;;;;;166.90;149.95;;;17.10;96.90;;;;;;5041455;28;20504;-75
2022/07/01 08:48:03;;;;;;;169.63;153.05;;;17.00;96.90;;;;;;5032998;28;20049;-75
2022/07/01 08:50:32;;;;;;;168.15;151.77;;;17.10;96.60;;;;;;5031519;28;20101;-75
2022/07/01 08:52:59;;;;;;;169.48;152.75;;;17.10;96.60;;;;;;5017228;28;20065;-76
2022/07/01 08:55:27;;;;;;;174.73;157.77;;;17.10;96.70;;;;;;5041000;28;20503;-73
2022/07/01 08:57:55;;;;;;;171.73;154.68;;;17.20;96.90;;;;;;5029784;28;20050;-75
2022/07/01 09:00:22;;;;;;;168.73;152.23;;;17.20;96.70;;;;;;5034739;28;20142;-75
2022/07/01 09:02:54;;;;;;;173.55;156.55;;;17.20;96.60;;;;;;5026538;28;20054;-75
2022/07/01 09:05:23;;;;;;;166.75;150.40;;;17.30;96.60;;;;;;5031838;28;20050;-72
2022/07/01 09:07:56;;;;;;;170.52;153.82;;;17.30;96.60;;;;;;5030380;28;20050;-74
2022/07/01 09:10:24;;;;;;;176.15;159.05;;;17.40;96.00;;;;;;5032942;28;20076;-75
2022/07/01 09:12:53;;;;;;;166.27;149.40;;;17.40;96.10;;;;;;5015117;28;20129;-74
2022/07/01 09:15:27;;;;;;;162.25;145.85;;;17.50;95.70;;;;;;5015485;28;20129;-75
2022/07/01 09:17:56;;;;;;;167.50;151.10;;;17.50;95.40;;;;;;5064293;28;20514;-74
2022/07/01 09:20:31;;;;;;;163.10;146.40;;;17.50;95.20;;;;;;5032242;28;20432;-76
2022/07/01 09:23:06;;;;;;;161.43;145.52;;;17.60;95.90;;;;;;5030586;28;20068;-75
2022/07/01 09:25:39;;;;;;;159.52;143.77;;;17.60;95.70;;;;;;5033326;28;20069;-77
2022/07/01 09:28:13;;;;;;;166.35;149.65;;;17.70;95.60;;;;;;5064395;28;20056;-76
2022/07/01 09:30:42;;;;;;;168.10;151.07;;;17.70;95.40;;;;;;5031180;28;20046;-76
2022/07/01 09:33:12;;;;;;;159.27;143.88;;;17.70;95.20;;;;;;5064037;28;20137;-76
2022/07/01 09:35:40;;;;;;;165.38;148.60;;;17.70;95.20;;;;;;5028107;28;20042;-73
2022/07/01 09:38:45;;;;;;;163.00;146.27;;;17.70;95.20;;;;;;5032545;28;20049;-74
2022/07/01 09:41:13;;;;;;;160.05;144.07;;;17.70;94.70;;;;;;5029481;28;20050;-73
2022/07/01 09:43:41;;;;;;;161.20;145.20;;;17.70;94.90;;;;;;5029620;28;20050;-73
2022/07/01 09:46:10;;;;;;;165.27;148.95;;;17.70;94.90;;;;;;5029832;28;20061;-73
2022/07/01 09:48:45;;;;;;;157.98;142.32;;;17.70;94.60;;;;;;5034395;28;20052;-73
2022/07/01 09:51:15;;;;;;;159.68;144.10;;;17.70;94.40;;;;;;5018445;28;20145;-75
2022/07/01 09:53:42;;;;;;;159.50;143.70;;;17.70;94.40;;;;;;5031849;28;20053;-75
2022/07/01 09:56:09;;;;;;;163.43;147.43;;;17.80;94.20;;;;;;5031184;28;20046;-75
2022/07/01 09:58:38;;;;;;;161.88;145.93;;;17.80;94.10;;;;;;5028832;28;20129;-74
2022/07/01 10:01:09;;;;;;;159.50;143.45;;;17.80;93.90;;;;;;5031208;28;20057;-75
2022/07/01 10:03:39;;;;;;;151.68;137.15;;;17.80;93.40;;;;;;5039475;28;20053;-75
2022/07/01 10:06:25;;;;;;;158.73;143.23;;;17.80;93.10;;;;;;5030750;28;20049;-75
2022/07/01 10:09:05;;;;;;;156.32;141.43;;;17.80;93.40;;;;;;5035102;28;20060;-75
2022/07/01 10:12:02;;;;;;;152.00;137.25;;;17.80;92.50;;;;;;5051550;28;20120;-74
2022/07/01 10:14:31;;;;;;;153.95;138.98;;;17.90;92.40;;;;;;5047398;28;20054;-75
2022/07/01 10:16:59;;;;;;;153.80;138.80;;;17.90;92.50;;;;;;5034046;28;20052;-74
2022/07/01 10:19:28;;;;;;;152.13;137.43;;;18.00;91.90;;;;;;5035771;28;20042;-74
2022/07/01 10:22:00;;;;;;;156.65;141.57;;;18.10;91.50;;;;;;5039642;28;20064;-73
2022/07/01 10:24:27;;;;;;;153.57;139.02;;;18.10;91.10;;;;;;5054059;28;20046;-74
2022/07/01 10:27:00;;;;;;;153.30;138.57;;;18.20;91.60;;;;;;5053908;28;20657;-75
2022/07/01 10:29:29;;;;;;;151.32;136.57;;;18.20;91.50;;;;;;5055563;28;20542;-75
2022/07/01 10:32:08;;;;;;;160.75;145.65;;;18.20;91.20;;;;;;5039255;28;20531;-74
2022/07/01 10:34:36;;;;;;;154.52;139.95;;;18.30;91.40;;;;;;5034087;28;20056;-74
2022/07/01 10:37:06;;;;;;;154.73;139.80;;;18.40;90.60;;;;;;5034357;28;20050;-74
2022/07/01 10:39:56;;;;;;;153.35;138.57;;;18.40;90.30;;;;;;5032837;28;20050;-74
2022/07/01 10:42:29;;;;;;;150.57;136.07;;;18.50;88.80;;;;;;5032456;28;20057;-74
2022/07/01 10:45:06;;;;;;;151.00;136.68;;;18.50;89.50;;;;;;5032421;28;20046;-74
2022/07/01 10:47:35;;;;;;;152.68;138.02;;;18.60;90.10;;;;;;5031881;28;20137;-74
2022/07/01 10:50:07;;;;;;;153.82;139.13;;;18.60;89.50;;;;;;5032437;28;20451;-74
2022/07/01 10:52:35;;;;;;;152.90;138.05;;;18.60;88.80;;;;;;5037244;28;20541;-75
2022/07/01 10:55:04;;;;;;;153.93;139.23;;;18.70;89.50;;;;;;5044140;28;20132;-75
2022/07/01 10:57:34;;;;;;;158.32;143.63;;;18.70;89.70;;;;;;5037331;28;20054;-75
2022/07/01 11:00:32;;;;;;;152.93;138.52;;;18.80;89.60;;;;;;5050341;28;20076;-75
2022/07/01 11:03:24;;;;;;;150.77;136.50;;;18.80;89.20;;;;;;5050490;28;20053;-75
2022/07/01 11:05:53;;;;;;;155.13;140.75;;;18.90;88.50;;;;;;5032746;28;20061;-75
2022/07/01 11:08:21;;;;;;;154.07;139.48;;;18.90;89.70;;;;;;5044020;28;20058;-74
2022/07/01 11:10:52;;;;;;;152.48;137.88;;;19.00;88.40;;;;;;5038900;28;20057;-75
2022/07/01 11:13:20;;;;;;;158.73;144.10;;;19.00;88.20;;;;;;5052415;28;20489;-75
2022/07/01 11:15:47;;;;;;;151.90;137.40;;;19.10;87.00;;;;;;5051907;28;20050;-76
2022/07/01 11:18:17;;;;;;;153.93;139.88;;;19.10;88.90;;;;;;5045779;28;20054;-74
2022/07/01 11:20:45;;;;;;;151.85;137.88;;;19.10;89.20;;;;;;5041828;28;20050;-75
2022/07/01 11:23:13;;;;;;;155.27;140.90;;;19.20;88.60;;;;;;5043244;28;20597;-75
2022/07/01 11:25:41;;;;;;;155.50;141.70;;;19.30;89.10;;;;;;5037221;28;20054;-75
2022/07/01 11:28:07;;;;;;;148.82;135.07;;;19.40;87.20;;;;;;5050414;28;20570;-74
2022/07/01 11:30:34;;;;;;;147.18;133.85;;;19.40;86.70;;;;;;5053032;28;20058;-74
2022/07/01 11:33:01;;;;;;;149.18;135.40;;;19.50;84.70;;;;;;5046667;28;20658;-74
2022/07/01 11:41:03;;;;;;;145.32;131.80;;;19.70;81.90;;;;;;5040383;28;20053;-75
2022/07/01 11:43:32;;;;;;;148.15;134.38;;;19.70;83.60;;;;;;5044501;28;20045;-74
2022/07/01 11:46:02;;;;;;;145.75;132.50;;;19.70;82.30;;;;;;5039827;28;20062;-74
2022/07/01 11:48:31;;;;;;;154.52;140.70;;;19.80;81.70;;;;;;5039305;28;20059;-74
2022/07/01 11:50:59;;;;;;;155.38;141.57;;;19.80;80.80;;;;;;5039284;28;20061;-74
2022/07/01 11:53:27;;;;;;;163.32;148.88;;;19.80;80.80;;;;;;5040044;28;20485;-74
2022/07/01 11:55:54;;;;;;;161.40;147.40;;;19.80;79.70;;;;;;5042217;28;20058;-75
2022/07/01 11:58:22;;;;;;;158.55;144.50;;;19.90;80.00;;;;;;5042242;28;20252;-74
2022/07/01 12:00:49;;;;;;;154.43;140.90;;;19.90;78.20;;;;;;5043186;28;20061;-74
2022/07/01 12:03:30;;;;;;;154.85;140.80;;;19.90;76.80;;;;;;5042225;28;20042;-75
2022/07/01 12:05:58;;;;;;;154.88;141.43;;;20.00;77.40;;;;;;5040616;28;20390;-75
2022/07/01 12:08:26;;;;;;;155.43;142.02;;;19.90;78.40;;;;;;5016333;28;21049;-78
2022/07/01 12:10:54;;;;;;;149.93;136.35;;;20.00;78.20;;;;;;5033162;28;20054;-80
2022/07/01 12:13:22;;;;;;;159.60;146.00;;;20.00;76.90;;;;;;5039596;28;20064;-78
2022/07/01 12:15:49;;;;;;;157.40;143.65;;;20.10;77.20;;;;;;5052205;28;20608;-79
2022/07/01 12:18:17;;;;;;;148.13;134.68;;;20.10;78.70;;;;;;5035454;28;20205;-77
2022/07/01 12:20:50;;;;;;;148.50;135.27;;;20.10;77.30;;;;;;5016821;28;20053;-80
2022/07/01 12:23:18;;;;;;;149.80;136.50;;;20.10;76.20;;;;;;5048203;28;20064;-78
2022/07/01 12:25:51;;;;;;;149.35;135.75;;;20.10;77.70;;;;;;5052834;28;20060;-79
2022/07/01 12:28:32;;;;;;;152.52;138.63;;;20.10;80.40;;;;;;5039968;28;20045;-78
2022/07/01 12:31:04;;;;;;;146.55;133.13;;;20.20;81.20;;;;;;5017750;28;20080;-79